Latest Weather Observations for Jimna

IDQ60801

Issued at 9:35 pm EST Friday 22 August 2014 (issued every 30 minutes, with the page automatically refreshed every 10 minutes)

About weather observations | Map of weather stations | Latest weather observations for QLD | Other Formats
Station Details ID: 040651 Name: JIMNA FORESTRY Lat: -26.66 Lon: 152.46 Height: 523.0 m
Data from the previous 72 hours. | See also: Recent months at Jimna
Date/Time
EST
Temp
°C
App
Temp
°C
Dew
Point
Rel
Hum
%
Delta-T
°C
Wind Press
QNH
hPa
Press
MSL
hPa
Rain
since 9 am
mm
Dir
 
Spd
km/h
Gust
km/h
Spd
kts
Gust
kts
22/09:30pm 11.4 - 10.1 92 0.7 - - - - - - - 10.2
22/09:00pm 11.5 - 10.2 92 0.7 - - - - - - - 9.6
22/08:30pm 11.7 - 10.4 92 0.7 - - - - - - - 8.6
22/08:00pm 11.7 - 10.4 92 0.7 - - - - - - - 7.8
22/07:30pm 11.6 - 10.5 93 0.6 - - - - - - - 7.6
22/07:00pm 11.6 - 10.3 92 0.7 - - - - - - - 6.6
22/06:30pm 11.7 - 10.3 91 0.7 - - - - - - - 5.6
22/06:00pm 11.7 - 10.3 91 0.7 - - - - - - - 5.2
22/05:30pm 11.8 - 10.4 91 0.7 - - - - - - - 4.8
22/05:00pm 11.9 - 10.5 91 0.7 - - - - - - - 4.6
22/04:30pm 12.0 - 10.4 90 0.8 - - - - - - - 4.2
22/04:00pm 12.5 - 10.6 88 1.0 - - - - - - - 3.2
22/03:30pm 12.8 - 11.0 89 1.0 - - - - - - - 3.0
22/03:00pm 13.0 - 10.9 87 1.1 - - - - - - - 2.6
22/02:30pm 12.8 - 10.7 87 1.1 - - - - - - - 2.6
22/02:00pm 12.9 - 11.3 90 0.9 - - - - - - - 2.0
22/01:30pm 13.0 - 11.1 88 1.0 - - - - - - - 1.4
22/01:00pm 13.2 - 11.3 88 1.0 - - - - - - - 1.2
22/12:30pm 13.9 - 11.2 84 1.5 - - - - - - - 1.0
22/12:00pm 13.3 - 10.8 85 1.3 - - - - - - - 1.0
22/11:30am 13.4 - 11.1 86 1.2 - - - - - - - 1.0
22/11:00am 13.1 - 11.3 89 1.0 - - - - - - - 1.0
22/10:30am 12.6 - 11.0 90 0.9 - - - - - - - 0.8
22/10:00am 12.5 - 11.4 93 0.6 - - - - - - - 0.8
22/09:30am 12.0 - 11.1 94 0.5 - - - - - - - 0.2
22/09:00am 11.7 - 10.8 94 0.5 - - - - - - - 9.2
22/08:30am 11.6 - 10.5 93 0.6 - - - - - - - 8.6
22/08:00am 11.5 - 10.4 93 0.6 - - - - - - - 8.0
22/07:30am 11.4 - 10.5 94 0.5 - - - - - - - 8.0
22/07:00am 11.0 - 9.9 93 0.6 - - - - - - - 7.2
22/06:30am 11.1 - 9.7 91 0.7 - - - - - - - 7.0
22/06:00am 11.3 - 9.9 91 0.7 - - - - - - - 7.0
22/05:30am 11.2 - 9.9 92 0.7 - - - - - - - 7.0
22/05:00am 11.0 - 9.8 92 0.6 - - - - - - - 6.8
22/04:30am 11.0 - 9.8 92 0.6 - - - - - - - 6.0
22/04:00am 11.0 - 9.8 92 0.6 - - - - - - - 5.2
22/03:30am 11.1 - 9.9 92 0.6 - - - - - - - 4.4
22/03:00am 11.2 - 9.9 92 0.7 - - - - - - - 3.6
22/02:30am 11.2 - 10.1 93 0.6 - - - - - - - 3.4
22/02:00am 11.2 - 10.1 93 0.6 - - - - - - - 3.2
22/01:30am 11.3 - 10.0 92 0.7 - - - - - - - 2.2
22/01:00am 11.5 - 10.2 92 0.7 - - - - - - - 1.6
22/12:30am 11.6 - 10.2 91 0.7 - - - - - - - 1.6
22/12:00am 11.9 - 10.0 88 1.0 - - - - - - - 1.4
 
Date/Time
EST
Temp
°C
App
Temp
°C
Dew
Point
Rel
Hum
%
Delta-T
°C
Wind Press
QNH
hPa
Press
MSL
hPa
Rain
since 9 am
mm
Dir
 
Spd
km/h
Gust
km/h
Spd
kts
Gust
kts
21/11:30pm 12.2 - 9.9 86 1.2 - - - - - - - 1.4
21/11:00pm 12.1 - 10.5 90 0.9 - - - - - - - 1.4
21/10:30pm 12.2 - 10.4 89 1.0 - - - - - - - 1.4
21/10:00pm 12.1 - 10.5 90 0.9 - - - - - - - 1.4
21/09:30pm 12.0 - 10.4 90 0.8 - - - - - - - 1.2
21/09:00pm 12.1 - 10.5 90 0.9 - - - - - - - 1.2
21/08:30pm 12.1 - 10.3 89 1.0 - - - - - - - 1.2
21/08:00pm 12.5 - 10.4 87 1.1 - - - - - - - 0.8
21/07:30pm 13.0 - 10.2 83 1.5 - - - - - - - 0.2
21/07:00pm 13.3 - 9.7 79 1.9 - - - - - - - 0.0
21/06:30pm 13.6 - 9.6 77 2.1 - - - - - - - 0.0
21/06:00pm 13.6 - 9.6 77 2.1 - - - - - - - 0.0
21/05:30pm 14.6 - 9.4 71 2.7 - - - - - - - 0.0
21/05:00pm 15.2 - 9.1 67 3.2 - - - - - - - 0.0
21/04:30pm 15.6 - 9.3 66 3.3 - - - - - - - 0.0
21/04:00pm 16.1 - 9.3 64 3.6 - - - - - - - 0.0
21/03:30pm 16.3 - 8.8 61 4.0 - - - - - - - 0.0
21/03:00pm 17.0 - 8.9 59 4.3 - - - - - - - 0.0
21/02:30pm 17.2 - 8.1 55 4.8 - - - - - - - 0.0
21/02:00pm 17.6 - 8.2 54 4.9 - - - - - - - 0.0
21/01:30pm 17.0 - 8.7 58 4.4 - - - - - - - 0.0
21/01:00pm 18.1 - 8.9 55 4.9 - - - - - - - 0.0
21/12:30pm 17.3 - 10.2 63 3.9 - - - - - - - 0.0
21/12:00pm 16.9 - 9.3 61 4.1 - - - - - - - 0.0
21/11:30am 17.9 - 9.8 59 4.4 - - - - - - - 0.0
21/11:00am 16.1 - 8.6 61 3.9 - - - - - - - 0.0
21/10:30am 15.9 - 8.9 63 3.7 - - - - - - - 0.0
21/10:00am 15.1 - 9.0 67 3.2 - - - - - - - 0.0
21/09:30am 15.2 - 9.1 67 3.2 - - - - - - - 0.0
21/09:00am 14.2 - 9.2 72 2.6 - - - - - - - 0.0
21/08:30am 11.9 - 8.7 81 1.6 - - - - - - - 0.0
21/08:00am 11.4 - 8.8 84 1.3 - - - - - - - 0.0
21/07:30am 9.8 - 8.1 89 0.8 - - - - - - - 0.0
21/07:00am 8.6 - 7.2 91 0.7 - - - - - - - 0.0
21/06:30am 8.2 - 6.8 91 0.7 - - - - - - - 0.0
21/06:00am 8.5 - 7.3 92 0.6 - - - - - - - 0.0
21/05:30am 8.8 - 7.4 91 0.7 - - - - - - - 0.0
21/05:00am 9.2 - 7.6 90 0.8 - - - - - - - 0.0
21/04:30am 9.6 - 7.9 89 0.8 - - - - - - - 0.0
21/04:00am 10.2 - 8.1 87 1.0 - - - - - - - 0.0
21/03:30am 10.2 - 8.3 88 1.0 - - - - - - - 0.0
21/03:00am 10.1 - 8.2 88 0.9 - - - - - - - 0.0
21/02:30am 10.1 - 8.0 87 1.0 - - - - - - - 0.0
21/02:00am 10.5 - 8.4 87 1.1 - - - - - - - 0.0
21/01:30am 10.5 - 8.3 86 1.1 - - - - - - - 0.0
21/01:00am 11.5 - 8.9 84 1.3 - - - - - - - 0.0
21/12:30am 11.6 - 8.8 83 1.4 - - - - - - - 0.0
21/12:00am 11.4 - 8.6 83 1.4 - - - - - - - 0.0
 
Date/Time
EST
Temp
°C
App
Temp
°C
Dew
Point
Rel
Hum
%
Delta-T
°C
Wind Press
QNH
hPa
Press
MSL
hPa
Rain
since 9 am
mm
Dir
 
Spd
km/h
Gust
km/h
Spd
kts
Gust
kts
20/11:30pm 11.5 - 8.9 84 1.3 - - - - - - - 0.0
20/11:00pm 11.5 - 8.5 82 1.5 - - - - - - - 0.0
20/10:30pm 11.6 - 8.5 81 1.6 - - - - - - - 0.0
20/10:00pm 11.5 - 8.2 80 1.7 - - - - - - - 0.0
20/09:30pm 12.2 - 8.5 78 1.9 - - - - - - - 0.0
20/09:00pm 12.5 - 9.0 79 1.8 - - - - - - - 0.0
20/08:30pm 12.7 - 9.2 79 1.8 - - - - - - - 0.0
20/08:00pm 12.7 - 9.3 80 1.8 - - - - - - - 0.0
20/07:30pm 12.7 - 9.3 80 1.8 - - - - - - - 0.0
20/07:00pm 13.0 - 8.9 76 2.1 - - - - - - - 0.0
20/06:30pm 13.4 - 8.7 73 2.4 - - - - - - - 0.0
20/06:00pm 14.1 - 8.5 69 2.9 - - - - - - - 0.0
20/05:30pm 14.9 - 8.2 64 3.5 - - - - - - - 0.0
20/05:00pm 15.7 - 8.0 60 4.0 - - - - - - - 0.0
20/04:30pm 17.3 - 7.9 54 4.9 - - - - - - - 0.0
20/04:00pm 17.2 - 8.1 55 4.8 - - - - - - - 0.0
20/03:30pm 17.2 - 8.1 55 4.8 - - - - - - - 0.0
20/03:00pm 17.3 - 7.6 53 5.0 - - - - - - - 0.0
20/02:30pm 17.8 - 7.8 52 5.2 - - - - - - - 0.0
20/02:00pm 18.1 - 7.5 50 5.5 - - - - - - - 0.0
20/01:30pm 18.4 - 7.5 49 5.7 - - - - - - - 0.0
20/01:00pm 19.4 - 7.2 45 6.4 - - - - - - - 0.0
20/12:30pm 18.1 - 7.2 49 5.6 - - - - - - - 0.0
20/12:00pm 17.6 - 7.6 52 5.2 - - - - - - - 0.0
20/11:30am 17.4 - 6.9 50 5.4 - - - - - - - 0.0
20/11:00am 17.6 - 6.8 49 5.5 - - - - - - - 0.0
20/10:30am 17.2 - 7.8 54 4.9 - - - - - - - 0.0
20/10:00am 16.5 - 8.2 58 4.3 - - - - - - - 0.0
20/09:30am 14.6 - 8.1 65 3.3 - - - - - - - 0.0
20/09:00am 13.2 - 7.6 69 2.8 - - - - - - - 0.0
20/08:30am 12.9 - 8.6 75 2.2 - - - - - - - 0.0
20/08:00am 11.6 - 8.8 83 1.4 - - - - - - - 0.0
20/07:30am 9.0 - 9.3 - - - - - - - - - 0.0
20/07:00am 5.8 - 4.9 94 0.4 - - - - - - - 0.0
20/06:30am 5.3 - 4.4 94 0.4 - - - - - - - 0.0
20/06:00am 5.3 - 4.3 93 0.4 - - - - - - - 0.0
20/05:30am 5.3 - 4.0 91 0.6 - - - - - - - 0.0
20/05:00am 6.6 - 5.6 93 0.5 - - - - - - - 0.0
20/04:30am 6.7 - 5.7 93 0.5 - - - - - - - 0.0
20/04:00am 6.3 - 4.9 91 0.6 - - - - - - - 0.0
20/03:30am 6.9 - 5.7 92 0.6 - - - - - - - 0.0
20/03:00am 7.5 - 6.3 92 0.6 - - - - - - - 0.0
20/02:30am 7.5 - 6.3 92 0.6 - - - - - - - 0.0
20/02:00am 7.5 - 6.1 91 0.7 - - - - - - - 0.0
20/01:30am 7.6 - 6.4 92 0.6 - - - - - - - 0.0
20/01:00am 7.4 - 6.0 91 0.7 - - - - - - - 0.0
20/12:30am 7.5 - 6.0 90 0.7 - - - - - - - 0.0
20/12:00am 7.7 - 6.0 89 0.8 - - - - - - - 0.0
 
Date/Time
EST
Temp
°C
App
Temp
°C
Dew
Point
Rel
Hum
%
Delta-T
°C
Wind Press
QNH
hPa
Press
MSL
hPa
Rain
since 9 am
mm
Dir
 
Spd
km/h
Gust
km/h
Spd
kts
Gust
kts
19/11:30pm 8.0 - 6.1 88 0.9 - - - - - - - 0.0
19/11:00pm 8.4 - 6.2 86 1.0 - - - - - - - 0.0
19/10:30pm 8.7 - 6.0 83 1.3 - - - - - - - 0.0
19/10:00pm 9.4 - 6.1 80 1.6 - - - - - - - 0.0

Other Formats:

Comma delimited format used in spreadsheet applications
http://www.bom.gov.au/fwo/IDQ60801/IDQ60801.94557.axf

JavaScript Object Notation format (JSON) in row-major order
http://www.bom.gov.au/fwo/IDQ60801/IDQ60801.94557.json